sensor_id;sensor_type;location;lat;lon;timestamp;P1;durP1;ratioP1;P2;durP2;ratioP2
57663;SDS011;43493;53.098;6.064;2024-02-23T00:00:03;12.43;;;1.83;;
57663;SDS011;43493;53.098;6.064;2024-02-23T00:02:31;9.80;;;1.60;;
57663;SDS011;43493;53.098;6.064;2024-02-23T00:04:57;6.43;;;1.17;;
57663;SDS011;43493;53.098;6.064;2024-02-23T00:07:23;6.60;;;1.10;;
57663;SDS011;43493;53.098;6.064;2024-02-23T00:09:48;5.67;;;1.03;;
57663;SDS011;43493;53.098;6.064;2024-02-23T00:12:14;3.33;;;1.10;;
57663;SDS011;43493;53.098;6.064;2024-02-23T00:14:40;3.80;;;0.80;;
57663;SDS011;43493;53.098;6.064;2024-02-23T00:17:05;5.73;;;1.00;;
57663;SDS011;43493;53.098;6.064;2024-02-23T00:19:31;5.03;;;1.00;;
57663;SDS011;43493;53.098;6.064;2024-02-23T00:21:57;5.77;;;1.00;;
57663;SDS011;43493;53.098;6.064;2024-02-23T00:24:24;7.40;;;1.13;;
57663;SDS011;43493;53.098;6.064;2024-02-23T00:26:51;6.60;;;1.13;;
57663;SDS011;43493;53.098;6.064;2024-02-23T00:29:17;8.30;;;1.70;;
57663;SDS011;43493;53.098;6.064;2024-02-23T00:31:43;5.13;;;1.10;;
57663;SDS011;43493;53.098;6.064;2024-02-23T00:34:11;9.47;;;1.70;;
57663;SDS011;43493;53.098;6.064;2024-02-23T00:36:41;10.13;;;1.60;;
57663;SDS011;43493;53.098;6.064;2024-02-23T00:39:09;7.90;;;1.40;;
57663;SDS011;43493;53.098;6.064;2024-02-23T00:41:35;10.83;;;1.90;;
57663;SDS011;43493;53.098;6.064;2024-02-23T00:44:04;8.07;;;1.47;;
57663;SDS011;43493;53.098;6.064;2024-02-23T00:46:30;8.47;;;2.03;;
57663;SDS011;43493;53.098;6.064;2024-02-23T00:48:56;8.07;;;1.70;;
57663;SDS011;43493;53.098;6.064;2024-02-23T00:51:22;6.87;;;1.40;;
57663;SDS011;43493;53.098;6.064;2024-02-23T00:53:48;10.33;;;1.80;;
57663;SDS011;43493;53.098;6.064;2024-02-23T00:56:13;9.30;;;1.70;;
57663;SDS011;43493;53.098;6.064;2024-02-23T00:58:39;7.37;;;1.50;;
57663;SDS011;43493;53.098;6.064;2024-02-23T01:01:05;9.17;;;2.00;;
57663;SDS011;43493;53.098;6.064;2024-02-23T01:03:31;8.33;;;1.30;;
57663;SDS011;43493;53.098;6.064;2024-02-23T01:05:57;16.27;;;2.80;;
57663;SDS011;43493;53.098;6.064;2024-02-23T01:08:23;12.00;;;1.80;;
57663;SDS011;43493;53.098;6.064;2024-02-23T01:10:49;14.10;;;2.00;;
57663;SDS011;43493;53.098;6.064;2024-02-23T01:13:14;11.23;;;1.80;;
57663;SDS011;43493;53.098;6.064;2024-02-23T01:15:41;10.63;;;1.90;;
57663;SDS011;43493;53.098;6.064;2024-02-23T01:18:07;11.77;;;2.00;;
57663;SDS011;43493;53.098;6.064;2024-02-23T01:20:33;12.30;;;2.53;;
57663;SDS011;43493;53.098;6.064;2024-02-23T01:22:59;10.43;;;2.23;;
57663;SDS011;43493;53.098;6.064;2024-02-23T01:25:26;15.00;;;2.70;;
57663;SDS011;43493;53.098;6.064;2024-02-23T01:27:51;17.97;;;3.30;;
57663;SDS011;43493;53.098;6.064;2024-02-23T01:30:17;17.90;;;2.80;;
57663;SDS011;43493;53.098;6.064;2024-02-23T01:32:44;16.73;;;3.07;;
57663;SDS011;43493;53.098;6.064;2024-02-23T01:35:10;13.27;;;2.20;;
57663;SDS011;43493;53.098;6.064;2024-02-23T01:37:36;15.10;;;2.73;;
57663;SDS011;43493;53.098;6.064;2024-02-23T01:40:02;11.80;;;2.73;;
57663;SDS011;43493;53.098;6.064;2024-02-23T01:42:28;16.67;;;3.50;;
57663;SDS011;43493;53.098;6.064;2024-02-23T01:44:54;13.20;;;2.23;;
57663;SDS011;43493;53.098;6.064;2024-02-23T01:47:23;13.83;;;3.20;;
57663;SDS011;43493;53.098;6.064;2024-02-23T01:49:50;17.13;;;3.27;;
57663;SDS011;43493;53.098;6.064;2024-02-23T01:52:17;15.23;;;2.80;;
57663;SDS011;43493;53.098;6.064;2024-02-23T01:54:44;18.13;;;3.80;;
57663;SDS011;43493;53.098;6.064;2024-02-23T01:57:09;15.63;;;3.27;;
57663;SDS011;43493;53.098;6.064;2024-02-23T01:59:36;14.97;;;2.97;;
57663;SDS011;43493;53.098;6.064;2024-02-23T02:02:03;19.20;;;3.37;;
57663;SDS011;43493;53.098;6.064;2024-02-23T02:04:30;13.03;;;2.37;;
57663;SDS011;43493;53.098;6.064;2024-02-23T02:06:56;9.97;;;2.07;;
57663;SDS011;43493;53.098;6.064;2024-02-23T02:09:24;18.97;;;3.40;;
57663;SDS011;43493;53.098;6.064;2024-02-23T02:11:50;13.80;;;3.03;;
57663;SDS011;43493;53.098;6.064;2024-02-23T02:14:16;18.40;;;2.97;;
57663;SDS011;43493;53.098;6.064;2024-02-23T02:16:42;15.17;;;3.17;;
57663;SDS011;43493;53.098;6.064;2024-02-23T02:19:09;13.13;;;3.20;;
57663;SDS011;43493;53.098;6.064;2024-02-23T02:21:38;15.33;;;3.33;;
57663;SDS011;43493;53.098;6.064;2024-02-23T02:24:05;13.47;;;2.77;;
57663;SDS011;43493;53.098;6.064;2024-02-23T02:26:31;9.93;;;2.93;;
57663;SDS011;43493;53.098;6.064;2024-02-23T02:28:57;14.40;;;3.03;;
57663;SDS011;43493;53.098;6.064;2024-02-23T02:31:23;16.60;;;2.37;;
57663;SDS011;43493;53.098;6.064;2024-02-23T02:33:49;15.57;;;3.50;;
57663;SDS011;43493;53.098;6.064;2024-02-23T02:36:14;14.83;;;2.63;;
57663;SDS011;43493;53.098;6.064;2024-02-23T02:38:40;12.53;;;2.20;;
57663;SDS011;43493;53.098;6.064;2024-02-23T02:41:06;15.47;;;2.77;;
57663;SDS011;43493;53.098;6.064;2024-02-23T02:43:32;19.37;;;2.93;;
57663;SDS011;43493;53.098;6.064;2024-02-23T02:45:58;14.87;;;2.37;;
57663;SDS011;43493;53.098;6.064;2024-02-23T02:48:24;12.17;;;2.73;;
57663;SDS011;43493;53.098;6.064;2024-02-23T02:50:50;14.73;;;2.50;;
57663;SDS011;43493;53.098;6.064;2024-02-23T02:53:16;18.63;;;2.83;;
57663;SDS011;43493;53.098;6.064;2024-02-23T02:55:43;16.67;;;2.67;;
57663;SDS011;43493;53.098;6.064;2024-02-23T02:58:10;17.27;;;3.40;;
57663;SDS011;43493;53.098;6.064;2024-02-23T03:00:37;15.80;;;3.10;;
57663;SDS011;43493;53.098;6.064;2024-02-23T03:03:02;18.70;;;4.00;;
57663;SDS011;43493;53.098;6.064;2024-02-23T03:05:28;15.43;;;3.13;;
57663;SDS011;43493;53.098;6.064;2024-02-23T03:07:54;14.23;;;2.17;;
57663;SDS011;43493;53.098;6.064;2024-02-23T03:10:19;15.33;;;2.83;;
57663;SDS011;43493;53.098;6.064;2024-02-23T03:12:45;13.07;;;2.37;;
57663;SDS011;43493;53.098;6.064;2024-02-23T03:15:11;12.20;;;2.23;;
57663;SDS011;43493;53.098;6.064;2024-02-23T03:17:37;9.30;;;2.50;;
57663;SDS011;43493;53.098;6.064;2024-02-23T03:20:04;11.87;;;2.23;;
57663;SDS011;43493;53.098;6.064;2024-02-23T03:22:39;9.10;;;2.10;;
57663;SDS011;43493;53.098;6.064;2024-02-23T03:25:05;14.57;;;3.20;;
57663;SDS011;43493;53.098;6.064;2024-02-23T03:27:34;13.63;;;2.53;;
57663;SDS011;43493;53.098;6.064;2024-02-23T03:30:04;13.20;;;2.47;;
57663;SDS011;43493;53.098;6.064;2024-02-23T03:32:33;13.47;;;2.47;;
57663;SDS011;43493;53.098;6.064;2024-02-23T03:35:02;15.53;;;2.50;;
57663;SDS011;43493;53.098;6.064;2024-02-23T03:37:29;20.87;;;2.93;;
57663;SDS011;43493;53.098;6.064;2024-02-23T03:39:55;14.83;;;2.53;;
57663;SDS011;43493;53.098;6.064;2024-02-23T03:42:20;10.30;;;2.10;;
57663;SDS011;43493;53.098;6.064;2024-02-23T03:44:46;19.93;;;2.77;;
57663;SDS011;43493;53.098;6.064;2024-02-23T03:47:12;13.07;;;2.07;;
57663;SDS011;43493;53.098;6.064;2024-02-23T03:49:38;14.03;;;2.50;;
57663;SDS011;43493;53.098;6.064;2024-02-23T03:52:04;13.93;;;2.60;;
57663;SDS011;43493;53.098;6.064;2024-02-23T03:54:30;12.37;;;2.20;;
57663;SDS011;43493;53.098;6.064;2024-02-23T03:56:56;19.93;;;2.73;;
57663;SDS011;43493;53.098;6.064;2024-02-23T03:59:22;11.40;;;2.00;;
57663;SDS011;43493;53.098;6.064;2024-02-23T04:01:48;14.97;;;2.87;;
57663;SDS011;43493;53.098;6.064;2024-02-23T04:04:13;14.93;;;2.20;;
57663;SDS011;43493;53.098;6.064;2024-02-23T04:06:39;16.20;;;1.90;;
57663;SDS011;43493;53.098;6.064;2024-02-23T04:09:05;12.40;;;2.50;;
57663;SDS011;43493;53.098;6.064;2024-02-23T04:11:31;11.87;;;2.07;;
57663;SDS011;43493;53.098;6.064;2024-02-23T04:13:57;17.43;;;3.10;;
57663;SDS011;43493;53.098;6.064;2024-02-23T04:16:23;18.87;;;2.77;;
57663;SDS011;43493;53.098;6.064;2024-02-23T04:18:50;16.30;;;2.30;;
57663;SDS011;43493;53.098;6.064;2024-02-23T04:21:16;17.38;;;3.78;;
57663;SDS011;43493;53.098;6.064;2024-02-23T04:23:43;13.17;;;2.20;;
57663;SDS011;43493;53.098;6.064;2024-02-23T04:26:09;16.58;;;2.05;;
57663;SDS011;43493;53.098;6.064;2024-02-23T04:28:37;14.60;;;2.53;;
57663;SDS011;43493;53.098;6.064;2024-02-23T04:31:04;11.37;;;1.87;;
57663;SDS011;43493;53.098;6.064;2024-02-23T04:33:29;14.73;;;2.23;;
57663;SDS011;43493;53.098;6.064;2024-02-23T04:35:55;11.20;;;2.07;;
57663;SDS011;43493;53.098;6.064;2024-02-23T04:38:21;16.07;;;2.93;;
57663;SDS011;43493;53.098;6.064;2024-02-23T04:40:46;18.40;;;4.33;;
57663;SDS011;43493;53.098;6.064;2024-02-23T04:43:12;14.93;;;1.93;;
57663;SDS011;43493;53.098;6.064;2024-02-23T04:45:38;11.07;;;1.77;;
57663;SDS011;43493;53.098;6.064;2024-02-23T04:48:04;11.20;;;2.70;;
57663;SDS011;43493;53.098;6.064;2024-02-23T04:50:30;16.25;;;2.47;;
57663;SDS011;43493;53.098;6.064;2024-02-23T04:52:56;15.63;;;2.30;;
57663;SDS011;43493;53.098;6.064;2024-02-23T04:55:21;12.43;;;2.10;;
57663;SDS011;43493;53.098;6.064;2024-02-23T04:57:47;10.83;;;2.83;;
57663;SDS011;43493;53.098;6.064;2024-02-23T05:00:13;12.47;;;2.00;;
57663;SDS011;43493;53.098;6.064;2024-02-23T05:02:39;12.15;;;1.90;;
57663;SDS011;43493;53.098;6.064;2024-02-23T05:05:05;10.43;;;2.23;;
57663;SDS011;43493;53.098;6.064;2024-02-23T05:07:31;10.57;;;2.00;;
57663;SDS011;43493;53.098;6.064;2024-02-23T05:09:57;12.13;;;2.20;;
57663;SDS011;43493;53.098;6.064;2024-02-23T05:12:23;11.43;;;1.80;;
57663;SDS011;43493;53.098;6.064;2024-02-23T05:14:49;12.00;;;2.60;;
57663;SDS011;43493;53.098;6.064;2024-02-23T05:17:14;12.90;;;2.50;;
57663;SDS011;43493;53.098;6.064;2024-02-23T05:19:40;8.80;;;2.40;;
57663;SDS011;43493;53.098;6.064;2024-02-23T05:22:06;12.40;;;2.27;;
57663;SDS011;43493;53.098;6.064;2024-02-23T05:24:32;16.43;;;2.40;;
57663;SDS011;43493;53.098;6.064;2024-02-23T05:26:57;16.43;;;2.53;;
57663;SDS011;43493;53.098;6.064;2024-02-23T05:29:23;15.37;;;2.70;;
57663;SDS011;43493;53.098;6.064;2024-02-23T05:31:51;11.50;;;2.40;;
57663;SDS011;43493;53.098;6.064;2024-02-23T05:34:17;11.93;;;3.27;;
57663;SDS011;43493;53.098;6.064;2024-02-23T05:36:44;18.63;;;3.17;;
57663;SDS011;43493;53.098;6.064;2024-02-23T05:39:15;16.50;;;2.92;;
57663;SDS011;43493;53.098;6.064;2024-02-23T05:41:42;17.73;;;2.50;;
57663;SDS011;43493;53.098;6.064;2024-02-23T05:44:08;15.83;;;2.80;;
57663;SDS011;43493;53.098;6.064;2024-02-23T05:46:34;17.90;;;2.47;;
57663;SDS011;43493;53.098;6.064;2024-02-23T05:49:01;12.10;;;2.53;;
57663;SDS011;43493;53.098;6.064;2024-02-23T05:51:29;15.37;;;2.77;;
57663;SDS011;43493;53.098;6.064;2024-02-23T05:53:55;14.00;;;2.00;;
57663;SDS011;43493;53.098;6.064;2024-02-23T05:56:21;11.82;;;2.42;;
57663;SDS011;43493;53.098;6.064;2024-02-23T05:58:49;12.43;;;2.60;;
57663;SDS011;43493;53.098;6.064;2024-02-23T06:01:18;12.00;;;2.97;;
57663;SDS011;43493;53.098;6.064;2024-02-23T06:03:44;13.20;;;3.40;;
57663;SDS011;43493;53.098;6.064;2024-02-23T06:06:10;11.25;;;3.38;;
57663;SDS011;43493;53.098;6.064;2024-02-23T06:08:36;12.97;;;3.10;;
57663;SDS011;43493;53.098;6.064;2024-02-23T06:11:02;14.03;;;3.53;;
57663;SDS011;43493;53.098;6.064;2024-02-23T06:13:32;14.40;;;3.83;;
57663;SDS011;43493;53.098;6.064;2024-02-23T06:15:58;14.27;;;3.60;;
57663;SDS011;43493;53.098;6.064;2024-02-23T06:18:24;15.18;;;3.88;;
57663;SDS011;43493;53.098;6.064;2024-02-23T06:20:50;13.73;;;3.63;;
57663;SDS011;43493;53.098;6.064;2024-02-23T06:23:16;11.30;;;3.20;;
57663;SDS011;43493;53.098;6.064;2024-02-23T06:25:42;18.92;;;5.32;;
57663;SDS011;43493;53.098;6.064;2024-02-23T06:28:09;13.57;;;3.20;;
57663;SDS011;43493;53.098;6.064;2024-02-23T06:30:36;12.40;;;3.67;;
57663;SDS011;43493;53.098;6.064;2024-02-23T06:33:01;10.50;;;3.37;;
57663;SDS011;43493;53.098;6.064;2024-02-23T06:35:29;13.02;;;4.40;;
57663;SDS011;43493;53.098;6.064;2024-02-23T06:37:56;13.30;;;4.00;;
57663;SDS011;43493;53.098;6.064;2024-02-23T06:40:22;13.53;;;3.73;;
57663;SDS011;43493;53.098;6.064;2024-02-23T06:42:47;12.10;;;3.53;;
57663;SDS011;43493;53.098;6.064;2024-02-23T06:45:13;16.93;;;4.30;;
57663;SDS011;43493;53.098;6.064;2024-02-23T06:47:39;11.00;;;3.60;;
57663;SDS011;43493;53.098;6.064;2024-02-23T06:50:06;18.35;;;5.07;;
57663;SDS011;43493;53.098;6.064;2024-02-23T06:52:33;14.20;;;4.50;;
57663;SDS011;43493;53.098;6.064;2024-02-23T06:54:59;18.73;;;5.13;;
57663;SDS011;43493;53.098;6.064;2024-02-23T06:57:25;12.83;;;3.73;;
57663;SDS011;43493;53.098;6.064;2024-02-23T06:59:51;15.53;;;5.20;;
57663;SDS011;43493;53.098;6.064;2024-02-23T07:02:17;16.80;;;5.32;;
57663;SDS011;43493;53.098;6.064;2024-02-23T07:04:43;14.13;;;4.90;;
57663;SDS011;43493;53.098;6.064;2024-02-23T07:07:08;17.80;;;6.27;;
57663;SDS011;43493;53.098;6.064;2024-02-23T07:09:35;15.95;;;5.60;;
57663;SDS011;43493;53.098;6.064;2024-02-23T07:12:00;14.87;;;5.97;;
57663;SDS011;43493;53.098;6.064;2024-02-23T07:14:26;14.47;;;5.60;;
57663;SDS011;43493;53.098;6.064;2024-02-23T07:16:52;12.23;;;5.20;;
57663;SDS011;43493;53.098;6.064;2024-02-23T07:19:18;15.73;;;5.77;;
57663;SDS011;43493;53.098;6.064;2024-02-23T07:21:45;20.55;;;6.18;;
57663;SDS011;43493;53.098;6.064;2024-02-23T07:24:11;13.02;;;5.00;;
57663;SDS011;43493;53.098;6.064;2024-02-23T07:26:37;20.27;;;5.80;;
57663;SDS011;43493;53.098;6.064;2024-02-23T07:29:02;11.20;;;4.90;;
57663;SDS011;43493;53.098;6.064;2024-02-23T07:31:28;17.25;;;5.13;;
57663;SDS011;43493;53.098;6.064;2024-02-23T07:33:54;14.27;;;5.13;;
57663;SDS011;43493;53.098;6.064;2024-02-23T07:36:20;13.20;;;4.93;;
57663;SDS011;43493;53.098;6.064;2024-02-23T07:38:46;12.10;;;4.57;;
57663;SDS011;43493;53.098;6.064;2024-02-23T07:41:12;13.82;;;4.63;;
57663;SDS011;43493;53.098;6.064;2024-02-23T07:43:43;14.47;;;4.90;;
57663;SDS011;43493;53.098;6.064;2024-02-23T07:46:09;13.15;;;5.00;;
57663;SDS011;43493;53.098;6.064;2024-02-23T07:48:35;10.93;;;4.37;;
57663;SDS011;43493;53.098;6.064;2024-02-23T07:51:07;10.73;;;4.32;;
57663;SDS011;43493;53.098;6.064;2024-02-23T07:53:33;11.23;;;5.13;;
57663;SDS011;43493;53.098;6.064;2024-02-23T07:55:59;9.53;;;5.43;;
57663;SDS011;43493;53.098;6.064;2024-02-23T07:58:27;12.77;;;5.13;;
57663;SDS011;43493;53.098;6.064;2024-02-23T08:00:53;10.63;;;5.60;;
57663;SDS011;43493;53.098;6.064;2024-02-23T08:03:19;12.30;;;5.73;;
57663;SDS011;43493;53.098;6.064;2024-02-23T08:05:44;15.93;;;5.83;;
57663;SDS011;43493;53.098;6.064;2024-02-23T08:08:10;12.40;;;5.67;;
57663;SDS011;43493;53.098;6.064;2024-02-23T08:10:36;11.20;;;5.93;;
57663;SDS011;43493;53.098;6.064;2024-02-23T08:13:01;12.30;;;5.70;;
57663;SDS011;43493;53.098;6.064;2024-02-23T08:15:27;15.40;;;6.03;;
57663;SDS011;43493;53.098;6.064;2024-02-23T08:17:53;11.90;;;5.10;;
57663;SDS011;43493;53.098;6.064;2024-02-23T08:20:19;10.50;;;5.10;;
57663;SDS011;43493;53.098;6.064;2024-02-23T08:22:45;10.43;;;5.63;;
57663;SDS011;43493;53.098;6.064;2024-02-23T08:25:10;8.93;;;4.70;;
57663;SDS011;43493;53.098;6.064;2024-02-23T08:27:36;11.23;;;4.90;;
57663;SDS011;43493;53.098;6.064;2024-02-23T08:30:02;12.50;;;4.90;;
57663;SDS011;43493;53.098;6.064;2024-02-23T08:32:28;12.30;;;4.80;;
57663;SDS011;43493;53.098;6.064;2024-02-23T08:34:54;12.80;;;5.37;;
57663;SDS011;43493;53.098;6.064;2024-02-23T08:37:25;8.83;;;3.47;;
57663;SDS011;43493;53.098;6.064;2024-02-23T08:39:51;11.20;;;6.13;;
57663;SDS011;43493;53.098;6.064;2024-02-23T08:42:17;9.32;;;3.42;;
57663;SDS011;43493;53.098;6.064;2024-02-23T08:44:43;8.73;;;3.00;;
57663;SDS011;43493;53.098;6.064;2024-02-23T08:47:08;11.67;;;3.47;;
57663;SDS011;43493;53.098;6.064;2024-02-23T08:49:34;8.07;;;2.90;;
57663;SDS011;43493;53.098;6.064;2024-02-23T08:52:00;7.43;;;2.60;;
57663;SDS011;43493;53.098;6.064;2024-02-23T08:54:27;8.02;;;2.53;;
57663;SDS011;43493;53.098;6.064;2024-02-23T08:56:53;8.70;;;2.83;;
57663;SDS011;43493;53.098;6.064;2024-02-23T08:59:18;7.73;;;2.87;;
57663;SDS011;43493;53.098;6.064;2024-02-23T09:01:44;9.13;;;2.53;;
57663;SDS011;43493;53.098;6.064;2024-02-23T09:04:11;9.30;;;2.50;;
57663;SDS011;43493;53.098;6.064;2024-02-23T09:06:38;8.87;;;2.53;;
57663;SDS011;43493;53.098;6.064;2024-02-23T09:09:04;12.20;;;2.27;;
57663;SDS011;43493;53.098;6.064;2024-02-23T09:11:29;9.83;;;2.47;;
57663;SDS011;43493;53.098;6.064;2024-02-23T09:13:55;8.13;;;2.30;;
57663;SDS011;43493;53.098;6.064;2024-02-23T09:16:21;10.90;;;2.37;;
57663;SDS011;43493;53.098;6.064;2024-02-23T09:18:49;9.83;;;2.67;;
57663;SDS011;43493;53.098;6.064;2024-02-23T09:21:15;8.10;;;2.27;;
57663;SDS011;43493;53.098;6.064;2024-02-23T09:23:41;10.97;;;2.60;;
57663;SDS011;43493;53.098;6.064;2024-02-23T09:26:10;9.33;;;3.03;;
57663;SDS011;43493;53.098;6.064;2024-02-23T09:28:36;9.23;;;3.03;;
57663;SDS011;43493;53.098;6.064;2024-02-23T09:31:03;7.97;;;2.20;;
57663;SDS011;43493;53.098;6.064;2024-02-23T09:33:29;10.47;;;3.07;;
57663;SDS011;43493;53.098;6.064;2024-02-23T09:35:56;9.33;;;3.03;;
57663;SDS011;43493;53.098;6.064;2024-02-23T09:38:22;6.63;;;2.60;;
57663;SDS011;43493;53.098;6.064;2024-02-23T09:40:51;10.27;;;2.23;;
57663;SDS011;43493;53.098;6.064;2024-02-23T09:43:17;9.60;;;2.47;;
57663;SDS011;43493;53.098;6.064;2024-02-23T09:45:44;9.20;;;2.33;;
57663;SDS011;43493;53.098;6.064;2024-02-23T09:48:11;9.17;;;2.40;;
57663;SDS011;43493;53.098;6.064;2024-02-23T09:50:40;10.20;;;2.50;;
57663;SDS011;43493;53.098;6.064;2024-02-23T09:53:07;10.53;;;2.73;;
57663;SDS011;43493;53.098;6.064;2024-02-23T09:55:36;9.47;;;2.93;;
57663;SDS011;43493;53.098;6.064;2024-02-23T09:58:01;8.50;;;2.50;;
57663;SDS011;43493;53.098;6.064;2024-02-23T10:00:29;7.37;;;2.73;;
57663;SDS011;43493;53.098;6.064;2024-02-23T10:02:55;12.20;;;2.67;;
57663;SDS011;43493;53.098;6.064;2024-02-23T10:05:23;8.37;;;2.93;;
57663;SDS011;43493;53.098;6.064;2024-02-23T10:07:54;7.80;;;2.23;;
57663;SDS011;43493;53.098;6.064;2024-02-23T10:10:24;9.53;;;2.97;;
57663;SDS011;43493;53.098;6.064;2024-02-23T10:12:58;9.27;;;2.10;;
57663;SDS011;43493;53.098;6.064;2024-02-23T10:15:24;9.40;;;2.67;;
57663;SDS011;43493;53.098;6.064;2024-02-23T10:17:51;10.43;;;2.60;;
57663;SDS011;43493;53.098;6.064;2024-02-23T10:20:16;10.43;;;2.57;;
57663;SDS011;43493;53.098;6.064;2024-02-23T10:22:42;11.97;;;2.60;;
57663;SDS011;43493;53.098;6.064;2024-02-23T10:25:10;11.17;;;2.57;;
57663;SDS011;43493;53.098;6.064;2024-02-23T10:27:35;9.33;;;2.20;;
57663;SDS011;43493;53.098;6.064;2024-02-23T10:30:02;8.93;;;2.30;;
57663;SDS011;43493;53.098;6.064;2024-02-23T10:32:29;9.53;;;2.20;;
57663;SDS011;43493;53.098;6.064;2024-02-23T10:34:59;8.70;;;2.03;;
57663;SDS011;43493;53.098;6.064;2024-02-23T10:37:29;7.20;;;1.93;;
57663;SDS011;43493;53.098;6.064;2024-02-23T10:39:57;10.67;;;2.33;;
57663;SDS011;43493;53.098;6.064;2024-02-23T10:42:25;8.07;;;2.00;;
57663;SDS011;43493;53.098;6.064;2024-02-23T10:45:00;10.45;;;2.03;;
57663;SDS011;43493;53.098;6.064;2024-02-23T10:47:27;7.47;;;1.80;;
57663;SDS011;43493;53.098;6.064;2024-02-23T10:49:55;8.20;;;1.97;;
57663;SDS011;43493;53.098;6.064;2024-02-23T10:52:25;8.97;;;1.90;;
57663;SDS011;43493;53.098;6.064;2024-02-23T10:54:52;14.07;;;2.67;;
57663;SDS011;43493;53.098;6.064;2024-02-23T10:57:18;7.73;;;1.90;;
57663;SDS011;43493;53.098;6.064;2024-02-23T10:59:45;7.07;;;2.10;;
57663;SDS011;43493;53.098;6.064;2024-02-23T11:02:12;9.27;;;2.20;;
57663;SDS011;43493;53.098;6.064;2024-02-23T11:04:45;6.57;;;2.20;;
57663;SDS011;43493;53.098;6.064;2024-02-23T11:07:18;9.80;;;2.13;;
57663;SDS011;43493;53.098;6.064;2024-02-23T11:09:54;8.63;;;2.13;;
57663;SDS011;43493;53.098;6.064;2024-02-23T11:12:24;6.80;;;2.00;;
57663;SDS011;43493;53.098;6.064;2024-02-23T11:14:50;12.23;;;2.47;;
57663;SDS011;43493;53.098;6.064;2024-02-23T11:17:20;7.77;;;2.27;;
57663;SDS011;43493;53.098;6.064;2024-02-23T11:19:48;8.97;;;2.57;;
57663;SDS011;43493;53.098;6.064;2024-02-23T11:22:23;9.37;;;2.33;;
57663;SDS011;43493;53.098;6.064;2024-02-23T11:24:52;10.03;;;3.17;;
57663;SDS011;43493;53.098;6.064;2024-02-23T11:27:19;9.43;;;2.97;;
57663;SDS011;43493;53.098;6.064;2024-02-23T11:29:45;5.70;;;2.03;;
57663;SDS011;43493;53.098;6.064;2024-02-23T11:32:13;9.70;;;2.53;;
57663;SDS011;43493;53.098;6.064;2024-02-23T11:34:39;9.50;;;2.00;;
57663;SDS011;43493;53.098;6.064;2024-02-23T11:37:11;10.20;;;2.40;;
57663;SDS011;43493;53.098;6.064;2024-02-23T11:39:38;10.53;;;2.47;;
57663;SDS011;43493;53.098;6.064;2024-02-23T11:42:05;8.30;;;2.30;;
57663;SDS011;43493;53.098;6.064;2024-02-23T11:44:31;9.37;;;1.97;;
57663;SDS011;43493;53.098;6.064;2024-02-23T11:46:58;9.60;;;1.90;;
57663;SDS011;43493;53.098;6.064;2024-02-23T11:49:30;8.80;;;2.37;;
57663;SDS011;43493;53.098;6.064;2024-02-23T11:51:56;7.73;;;1.90;;
57663;SDS011;43493;53.098;6.064;2024-02-23T11:54:22;7.70;;;1.73;;
57663;SDS011;43493;53.098;6.064;2024-02-23T11:56:48;7.50;;;1.80;;
57663;SDS011;43493;53.098;6.064;2024-02-23T11:59:20;9.40;;;2.20;;
57663;SDS011;43493;53.098;6.064;2024-02-23T12:01:46;7.43;;;1.93;;
57663;SDS011;43493;53.098;6.064;2024-02-23T12:04:13;9.80;;;2.23;;
57663;SDS011;43493;53.098;6.064;2024-02-23T12:06:40;8.50;;;2.33;;
57663;SDS011;43493;53.098;6.064;2024-02-23T12:09:06;9.57;;;1.80;;
57663;SDS011;43493;53.098;6.064;2024-02-23T12:11:33;8.13;;;2.53;;
57663;SDS011;43493;53.098;6.064;2024-02-23T12:14:00;7.20;;;2.20;;
57663;SDS011;43493;53.098;6.064;2024-02-23T12:16:27;5.83;;;1.53;;
57663;SDS011;43493;53.098;6.064;2024-02-23T12:18:53;7.70;;;1.80;;
57663;SDS011;43493;53.098;6.064;2024-02-23T12:21:23;10.87;;;1.90;;
57663;SDS011;43493;53.098;6.064;2024-02-23T12:23:49;6.33;;;2.07;;
57663;SDS011;43493;53.098;6.064;2024-02-23T12:26:16;5.87;;;2.10;;
57663;SDS011;43493;53.098;6.064;2024-02-23T12:28:43;6.67;;;2.20;;
57663;SDS011;43493;53.098;6.064;2024-02-23T12:31:09;5.83;;;1.83;;
57663;SDS011;43493;53.098;6.064;2024-02-23T12:33:36;8.30;;;1.80;;
57663;SDS011;43493;53.098;6.064;2024-02-23T12:36:04;3.60;;;1.40;;
57663;SDS011;43493;53.098;6.064;2024-02-23T12:38:30;6.17;;;1.87;;
57663;SDS011;43493;53.098;6.064;2024-02-23T12:40:56;8.83;;;1.70;;
57663;SDS011;43493;53.098;6.064;2024-02-23T12:43:22;7.90;;;1.73;;
57663;SDS011;43493;53.098;6.064;2024-02-23T12:45:54;8.03;;;1.80;;
57663;SDS011;43493;53.098;6.064;2024-02-23T12:48:20;9.57;;;2.10;;
57663;SDS011;43493;53.098;6.064;2024-02-23T12:50:46;6.87;;;2.27;;
57663;SDS011;43493;53.098;6.064;2024-02-23T12:53:32;6.40;;;1.73;;
57663;SDS011;43493;53.098;6.064;2024-02-23T12:56:06;7.23;;;2.07;;
57663;SDS011;43493;53.098;6.064;2024-02-23T12:58:37;10.23;;;2.10;;
57663;SDS011;43493;53.098;6.064;2024-02-23T13:01:04;9.13;;;2.00;;
57663;SDS011;43493;53.098;6.064;2024-02-23T13:03:32;7.23;;;2.00;;
57663;SDS011;43493;53.098;6.064;2024-02-23T13:05:58;9.50;;;2.13;;
57663;SDS011;43493;53.098;6.064;2024-02-23T13:08:24;10.27;;;2.50;;
57663;SDS011;43493;53.098;6.064;2024-02-23T13:10:51;10.70;;;2.40;;
57663;SDS011;43493;53.098;6.064;2024-02-23T13:13:18;5.93;;;1.70;;
57663;SDS011;43493;53.098;6.064;2024-02-23T13:15:44;9.47;;;2.23;;
57663;SDS011;43493;53.098;6.064;2024-02-23T13:18:10;5.93;;;1.83;;
57663;SDS011;43493;53.098;6.064;2024-02-23T13:20:39;7.50;;;1.97;;
57663;SDS011;43493;53.098;6.064;2024-02-23T13:23:08;8.27;;;1.90;;
57663;SDS011;43493;53.098;6.064;2024-02-23T13:25:35;8.87;;;1.87;;
57663;SDS011;43493;53.098;6.064;2024-02-23T13:28:01;7.17;;;2.10;;
57663;SDS011;43493;53.098;6.064;2024-02-23T13:30:27;6.77;;;1.70;;
57663;SDS011;43493;53.098;6.064;2024-02-23T13:32:53;8.13;;;1.90;;
57663;SDS011;43493;53.098;6.064;2024-02-23T13:35:19;6.43;;;1.70;;
57663;SDS011;43493;53.098;6.064;2024-02-23T13:37:44;7.80;;;1.83;;
57663;SDS011;43493;53.098;6.064;2024-02-23T13:40:10;7.13;;;1.77;;
57663;SDS011;43493;53.098;6.064;2024-02-23T13:42:37;8.83;;;2.43;;
57663;SDS011;43493;53.098;6.064;2024-02-23T13:45:04;9.70;;;2.20;;
57663;SDS011;43493;53.098;6.064;2024-02-23T13:47:31;8.63;;;1.60;;
57663;SDS011;43493;53.098;6.064;2024-02-23T13:49:57;8.43;;;2.07;;
57663;SDS011;43493;53.098;6.064;2024-02-23T13:52:23;5.33;;;1.60;;
57663;SDS011;43493;53.098;6.064;2024-02-23T13:54:49;12.40;;;2.00;;
57663;SDS011;43493;53.098;6.064;2024-02-23T13:57:14;8.30;;;2.37;;
57663;SDS011;43493;53.098;6.064;2024-02-23T13:59:40;8.17;;;1.53;;
57663;SDS011;43493;53.098;6.064;2024-02-23T14:02:06;9.43;;;1.60;;
57663;SDS011;43493;53.098;6.064;2024-02-23T14:04:32;9.17;;;1.60;;
57663;SDS011;43493;53.098;6.064;2024-02-23T14:06:58;8.50;;;1.77;;
57663;SDS011;43493;53.098;6.064;2024-02-23T14:09:23;7.00;;;1.70;;
57663;SDS011;43493;53.098;6.064;2024-02-23T14:11:49;7.07;;;1.47;;
57663;SDS011;43493;53.098;6.064;2024-02-23T14:14:15;7.57;;;1.60;;
57663;SDS011;43493;53.098;6.064;2024-02-23T14:16:41;6.33;;;1.33;;
57663;SDS011;43493;53.098;6.064;2024-02-23T14:19:07;10.67;;;1.63;;
57663;SDS011;43493;53.098;6.064;2024-02-23T14:21:33;6.67;;;1.60;;
57663;SDS011;43493;53.098;6.064;2024-02-23T14:24:01;7.73;;;1.87;;
57663;SDS011;43493;53.098;6.064;2024-02-23T14:26:27;7.33;;;1.80;;
57663;SDS011;43493;53.098;6.064;2024-02-23T14:28:53;9.63;;;2.00;;
57663;SDS011;43493;53.098;6.064;2024-02-23T14:31:18;10.80;;;1.90;;
57663;SDS011;43493;53.098;6.064;2024-02-23T14:33:44;8.13;;;1.90;;
57663;SDS011;43493;53.098;6.064;2024-02-23T14:36:10;6.60;;;1.80;;